Time;durP1;ratioP1;P1;durP2;ratioP2;P2;SDS_P1;SDS_P2;PMS_P1;PMS_P2;Temp;Humidity;BMP_temperature;BMP_pressure;BME280_temperature;BME280_humidity;BME280_pressure;Samples;Min_cycle;Max_cycle;Signal;HPM_P1;HPM_P2
2022/12/28 00:01:08;;;;;;;5.47;2.22;;;;;;;8.66;54.72;102351.17;1657285;85;21060;-57
2022/12/28 00:03:34;;;;;;;5.33;1.90;;;;;;;8.64;54.69;102348.57;1661559;85;21045;-57
2022/12/28 00:06:02;;;;;;;4.97;2.33;;;;;;;8.59;54.60;102341.18;1664900;85;21547;-57
2022/12/28 00:08:29;;;;;;;4.17;1.80;;;;;;;8.57;54.93;102341.55;1654643;84;21035;-57
2022/12/28 00:11:01;;;;;;;5.40;2.02;;;;;;;8.57;55.25;102351.94;1658390;85;21574;-57
2022/12/28 00:13:29;;;;;;;6.05;2.35;;;;;;;8.55;55.23;102358.83;1671969;83;21004;-57
2022/12/28 00:15:57;;;;;;;3.95;2.00;;;;;;;8.54;55.49;102354.52;1697267;83;21063;-57
2022/12/28 00:18:23;;;;;;;6.05;2.60;;;;;;;8.52;55.32;102357.94;1693166;82;21034;-57
2022/12/28 00:20:59;;;;;;;4.70;2.30;;;;;;;8.49;55.36;102381.27;1694967;83;21222;-57
2022/12/28 00:23:28;;;;;;;5.30;2.33;;;;;;;8.48;55.17;102390.77;1716264;81;21030;-57
2022/12/28 00:25:54;;;;;;;4.72;2.58;;;;;;;8.44;55.32;102390.69;1704110;81;21054;-58
2022/12/28 00:28:21;;;;;;;6.37;2.27;;;;;;;8.42;55.38;102392.40;1668425;84;21050;-56
2022/12/28 00:30:48;;;;;;;5.95;2.30;;;;;;;8.41;55.27;102410.97;1705696;83;21024;-56
2022/12/28 00:33:15;;;;;;;5.87;3.00;;;;;;;8.41;55.38;102414.02;1695472;81;21094;-56
2022/12/28 00:35:43;;;;;;;4.92;2.30;;;;;;;8.38;55.55;102417.44;1702722;83;21080;-56
2022/12/28 00:38:10;;;;;;;3.33;1.95;;;;;;;8.39;55.52;102420.91;1691210;83;21014;-57
2022/12/28 00:40:37;;;;;;;7.65;2.35;;;;;;;8.40;55.59;102427.82;1698769;83;21125;-57
2022/12/28 00:43:04;;;;;;;5.80;2.30;;;;;;;8.38;55.43;102443.37;1703367;82;21000;-57
2022/12/28 00:45:30;;;;;;;5.60;2.62;;;;;;;8.36;55.44;102431.22;1692730;83;21137;-57
2022/12/28 00:47:57;;;;;;;7.25;3.15;;;;;;;8.33;55.58;102424.68;1693703;83;21054;-57
2022/12/28 00:50:24;;;;;;;5.42;2.27;;;;;;;8.30;55.42;102444.11;1698215;83;21081;-56
2022/12/28 00:52:51;;;;;;;7.08;2.83;;;;;;;8.28;55.51;102438.03;1696187;83;21107;-56
2022/12/28 00:55:17;;;;;;;4.78;2.10;;;;;;;8.25;55.45;102438.84;1701721;82;21105;-56
2022/12/28 00:57:44;;;;;;;4.67;2.27;;;;;;;8.22;55.47;102446.12;1691011;83;21098;-57
2022/12/28 01:00:13;;;;;;;5.95;2.27;;;;;;;8.19;55.66;102451.28;1716439;80;21555;-56
2022/12/28 01:02:40;;;;;;;7.55;2.90;;;;;;;8.20;55.80;102462.08;1760517;81;20987;-56
2022/12/28 01:05:08;;;;;;;4.45;2.17;;;;;;;8.22;55.96;102462.97;1757607;80;21060;-56
2022/12/28 01:07:35;;;;;;;3.27;2.08;;;;;;;8.26;55.92;102468.25;1765276;80;20995;-56
2022/12/28 01:10:01;;;;;;;3.17;2.08;;;;;;;8.24;55.83;102467.76;1771068;80;21077;-56
2022/12/28 01:12:28;;;;;;;3.77;2.00;;;;;;;8.21;55.88;102466.85;1750264;80;21537;-56
2022/12/28 01:14:55;;;;;;;3.98;2.08;;;;;;;8.19;56.01;102468.13;1773955;80;21105;-56
2022/12/28 01:17:24;;;;;;;4.83;2.08;;;;;;;8.17;56.13;102472.42;1756557;80;21066;-56
2022/12/28 01:19:51;;;;;;;4.00;2.40;;;;;;;8.13;56.08;102470.63;1744694;81;21026;-56
2022/12/28 01:22:19;;;;;;;6.58;2.47;;;;;;;8.12;55.97;102474.06;1749683;81;21038;-56
2022/12/28 01:24:45;;;;;;;4.28;2.22;;;;;;;8.11;56.08;102476.64;1752439;81;21047;-56
2022/12/28 01:27:12;;;;;;;6.17;2.22;;;;;;;8.11;56.17;102480.11;1762260;80;21036;-56
2022/12/28 01:29:39;;;;;;;3.75;2.30;;;;;;;8.12;56.15;102477.95;1738550;80;21022;-57
2022/12/28 01:32:06;;;;;;;6.40;2.15;;;;;;;8.12;56.03;102479.24;1764293;80;21497;-56
2022/12/28 01:34:33;;;;;;;3.87;2.12;;;;;;;8.09;56.06;102490.00;1763351;80;21073;-56
2022/12/28 01:37:00;;;;;;;7.05;2.33;;;;;;;8.08;55.97;102489.12;1765551;80;21081;-56
2022/12/28 01:39:28;;;;;;;4.78;2.35;;;;;;;8.07;55.84;102483.50;1774695;80;21559;-57
2022/12/28 01:41:55;;;;;;;5.17;2.22;;;;;;;8.02;55.99;102479.95;1749346;80;20978;-56
2022/12/28 01:44:36;;;;;;;5.10;2.15;;;;;;;8.01;55.98;102482.11;1751846;80;21034;-56
2022/12/28 01:47:06;;;;;;;3.50;2.37;;;;;;;8.00;56.11;102493.73;1740235;80;21010;-56
2022/12/28 01:49:58;;;;;;;3.50;1.50;;;;;;;7.97;56.15;102499.76;1758661;80;21811;-56
2022/12/28 01:52:44;;;;;;;6.65;2.00;;;;;;;7.98;56.14;102500.19;1699902;84;21090;-56
2022/12/28 01:55:29;;;;;;;4.70;2.33;;;;;;;7.98;55.94;102497.59;1701301;84;21027;-56
2022/12/28 01:58:04;;;;;;;5.00;2.40;;;;;;;7.97;55.91;102498.47;1698580;84;21090;-56
2022/12/28 02:00:32;;;;;;;6.83;2.30;;;;;;;7.94;55.90;102500.98;1703900;84;21038;-56
2022/12/28 02:03:07;;;;;;;3.33;1.85;;;;;;;7.89;56.02;102503.91;1691410;83;21058;-56
2022/12/28 02:05:38;;;;;;;6.97;2.70;;;;;;;7.85;56.09;102504.71;1677013;85;21558;-56
2022/12/28 02:08:18;;;;;;;5.87;3.10;;;;;;;7.82;56.15;102513.75;1656977;85;20999;-56
2022/12/28 02:10:44;;;;;;;5.45;2.45;;;;;;;7.79;56.33;102512.38;1679938;85;21027;-56
2022/12/28 02:13:13;;;;;;;3.95;2.40;;;;;;;7.78;56.38;102521.44;1654703;85;21074;-56
2022/12/28 02:15:41;;;;;;;5.03;2.12;;;;;;;7.75;56.42;102520.95;1681549;85;21067;-56
2022/12/28 02:18:08;;;;;;;4.65;2.27;;;;;;;7.74;56.63;102514.04;1679674;85;21078;-57
2022/12/28 02:20:53;;;;;;;4.25;2.15;;;;;;;7.73;56.73;102510.13;1683867;85;21571;-58
2022/12/28 02:23:47;;;;;;;7.67;2.20;;;;;;;7.71;56.69;102519.56;1676835;85;21100;-57
2022/12/28 02:26:31;;;;;;;5.05;2.15;;;;;;;7.67;56.78;102517.35;1595213;88;21155;-57
2022/12/28 02:29:26;;;;;;;7.90;3.10;;;;;;;7.66;56.86;102514.73;1581394;88;21106;-57
2022/12/28 02:32:31;;;;;;;5.15;2.20;;;;;;;7.69;56.98;102519.55;1584275;88;21057;-58
2022/12/28 02:35:22;;;;;;;5.15;2.17;;;;;;;7.77;56.80;102524.44;1542505;91;21117;-57
2022/12/28 02:37:57;;;;;;;3.67;1.90;;;;;;;7.82;56.49;102531.89;1561762;91;21086;-57
2022/12/28 02:40:29;;;;;;;5.87;2.50;;;;;;;7.84;56.40;102532.78;1550878;91;21134;-58
2022/12/28 02:42:56;;;;;;;3.62;2.22;;;;;;;7.88;56.26;102539.77;1528536;93;21052;-57
2022/12/28 02:51:44;;;;;;;4.42;2.42;;;;;;;7.74;56.31;102559.80;1518571;94;21085;-57
2022/12/28 02:57:40;;;;;;;6.85;2.40;;;;;;;7.75;56.73;102549.45;1554475;90;21132;-57
2022/12/28 03:00:08;;;;;;;;;;;;;;;7.78;56.68;102552.12;1586116;90;21120;-57
2022/12/28 03:03:14;;;;;;;6.22;2.60;;;;;;;7.81;56.56;102551.30;1571689;90;20156;-57
2022/12/28 03:09:20;;;;;;;4.92;2.20;;;;;;;7.88;56.67;102564.80;1570014;90;21191;-58
2022/12/28 03:11:53;;;;;;;8.58;2.55;;;;;;;7.91;56.55;102564.88;1562983;90;21120;-57
2022/12/28 03:14:30;;;;;;;4.05;2.05;;;;;;;7.94;56.36;102578.75;1562966;90;21088;-57
2022/12/28 03:31:11;;;;;;;6.62;3.02;;;;;;;7.90;55.78;102582.55;1576469;87;21155;-57
2022/12/28 03:33:44;;;;;;;6.12;3.05;;;;;;;7.88;55.92;102581.23;1611190;87;21033;-57
2022/12/28 03:36:34;;;;;;;3.70;2.62;;;;;;;7.88;56.05;102586.42;1571796;90;21691;-57
2022/12/28 03:39:15;;;;;;;5.83;2.85;;;;;;;7.88;56.02;102587.72;1575232;90;21113;-57
2022/12/28 03:44:57;;;;;;;4.97;3.20;;;;;;;7.89;55.98;102597.22;1621881;87;21105;-57
2022/12/28 03:47:24;;;;;;;;;;;;;;;7.89;55.82;102607.59;1639380;86;21053;-57
2022/12/28 03:49:51;;;;;;;5.12;2.83;;;;;;;7.88;55.80;102608.45;1653817;86;20110;-58
2022/12/28 03:52:17;;;;;;;5.60;2.42;;;;;;;7.86;55.85;102615.33;1631936;85;21112;-57
2022/12/28 03:54:46;;;;;;;8.65;3.60;;;;;;;7.84;55.79;102605.77;1645236;86;21072;-57
2022/12/28 03:57:15;;;;;;;7.20;3.27;;;;;;;7.81;55.82;102611.76;1669129;84;21141;-57
2022/12/28 03:59:42;;;;;;;6.35;3.70;;;;;;;7.78;55.63;102619.91;1664483;85;21031;-57
2022/12/28 04:02:08;;;;;;;5.10;3.05;;;;;;;7.76;55.55;102617.70;1672599;84;21034;-57
2022/12/28 04:04:35;;;;;;;5.95;2.90;;;;;;;7.75;55.71;102623.30;1674552;85;21074;-58
2022/12/28 04:07:02;;;;;;;5.65;2.98;;;;;;;7.73;55.67;102622.41;1683544;85;21054;-57
2022/12/28 04:09:31;;;;;;;5.83;2.98;;;;;;;7.73;55.56;102631.47;1659044;85;21127;-58
2022/12/28 04:11:58;;;;;;;6.65;3.20;;;;;;;7.72;55.52;102621.09;1651795;85;21117;-57
2022/12/28 04:14:26;;;;;;;6.15;3.33;;;;;;;7.72;55.43;102626.27;1667274;85;21090;-58
2022/12/28 04:16:53;;;;;;;5.95;3.35;;;;;;;7.70;55.44;102624.95;1665173;84;21702;-58
2022/12/28 04:19:20;;;;;;;7.50;3.50;;;;;;;7.68;55.24;102626.64;1665138;84;21021;-57
2022/12/28 04:21:47;;;;;;;6.40;3.25;;;;;;;7.66;55.14;102642.58;1672257;85;21592;-57
2022/12/28 04:24:14;;;;;;;7.87;3.58;;;;;;;7.61;54.96;102646.78;1637318;86;21117;-57
2022/12/28 04:26:40;;;;;;;6.70;3.33;;;;;;;7.57;55.08;102651.86;1664733;85;21063;-57
2022/12/28 04:29:08;;;;;;;6.53;3.10;;;;;;;7.52;55.33;102655.67;1667335;85;21125;-57
2022/12/28 04:31:48;;;;;;;4.80;3.12;;;;;;;7.50;55.31;102656.03;1640540;85;21090;-57
2022/12/28 04:34:17;;;;;;;6.90;3.60;;;;;;;7.48;55.40;102661.60;1750020;80;21090;-57
2022/12/28 04:36:46;;;;;;;5.15;3.20;;;;;;;7.47;55.24;102668.94;1757333;80;21030;-58
2022/12/28 04:39:14;;;;;;;6.15;3.47;;;;;;;7.45;55.35;102673.21;1757284;80;21039;-59
2022/12/28 04:41:41;;;;;;;5.80;3.12;;;;;;;7.46;55.42;102682.71;1770156;80;21533;-57
2022/12/28 04:44:07;;;;;;;7.25;3.83;;;;;;;7.47;55.44;102693.55;1757281;80;21049;-57
2022/12/28 04:46:34;;;;;;;6.80;3.00;;;;;;;7.48;55.37;102699.16;1751517;80;20990;-57
2022/12/28 04:49:01;;;;;;;8.88;4.40;;;;;;;7.49;55.42;102703.52;1767624;80;21037;-57
2022/12/28 04:51:29;;;;;;;12.10;4.75;;;;;;;7.49;55.32;102707.40;1759992;80;21054;-57
2022/12/28 04:53:56;;;;;;;6.37;3.65;;;;;;;7.49;55.35;102705.22;1764371;80;21049;-57
2022/12/28 04:56:23;;;;;;;6.85;3.17;;;;;;;7.46;55.27;102695.66;1762714;80;21106;-57
2022/12/28 04:58:57;;;;;;;7.08;3.37;;;;;;;7.43;55.03;102698.20;1744310;80;20994;-57
2022/12/28 05:01:24;;;;;;;4.92;2.87;;;;;;;7.36;55.06;102687.24;1754028;80;21046;-57
2022/12/28 05:03:51;;;;;;;5.87;2.83;;;;;;;7.29;55.26;102678.91;1764381;80;21577;-59
2022/12/28 05:06:20;;;;;;;6.20;3.47;;;;;;;7.22;55.04;102666.65;1750376;80;21001;-58
2022/12/28 05:08:47;;;;;;;5.97;3.10;;;;;;;7.09;55.31;102658.17;1764991;80;20986;-57
2022/12/28 05:11:20;;;;;;;6.42;3.22;;;;;;;6.90;55.65;102658.17;1754324;80;21019;-58
2022/12/28 05:13:47;;;;;;;7.25;3.40;;;;;;;6.76;56.04;102659.97;1724832;82;21027;-57
2022/12/28 05:16:17;;;;;;;6.65;3.35;;;;;;;6.64;56.51;102667.41;1734296;82;21638;-58
2022/12/28 05:18:44;;;;;;;7.62;3.40;;;;;;;6.57;57.01;102686.66;1735127;82;21049;-58
2022/12/28 05:21:25;;;;;;;8.95;3.70;;;;;;;6.58;57.27;102702.66;1741455;82;21018;-57
2022/12/28 05:23:52;;;;;;;4.55;3.10;;;;;;;6.63;57.37;102723.88;1733768;82;21018;-58
2022/12/28 05:26:21;;;;;;;5.67;3.90;;;;;;;6.66;57.46;102726.11;1743346;82;21052;-58
2022/12/28 05:28:48;;;;;;;8.18;3.42;;;;;;;6.69;57.62;102724.03;1746416;81;21510;-58
2022/12/28 05:31:18;;;;;;;8.53;3.87;;;;;;;6.71;57.63;102714.59;1736886;82;21058;-59
2022/12/28 05:33:46;;;;;;;6.47;3.50;;;;;;;6.69;57.43;102698.16;1691023;82;21578;-58
2022/12/28 05:36:18;;;;;;;9.15;3.98;;;;;;;6.55;57.31;102669.38;1686560;84;21070;-58
2022/12/28 05:38:45;;;;;;;12.58;4.60;;;;;;;6.39;57.60;102653.87;1701402;84;21038;-58
2022/12/28 05:41:16;;;;;;;11.90;4.62;;;;;;;6.28;57.98;102647.58;1697663;84;21650;-58
2022/12/28 05:43:43;;;;;;;7.65;3.60;;;;;;;6.22;58.29;102662.90;1654869;85;21080;-58
2022/12/28 05:46:19;;;;;;;8.18;3.60;;;;;;;6.20;58.63;102678.78;1641235;85;21159;-57
2022/12/28 05:48:45;;;;;;;8.75;4.58;;;;;;;6.24;58.67;102692.69;1636014;85;21080;-58
2022/12/28 05:51:18;;;;;;;6.67;3.90;;;;;;;6.26;58.92;102694.48;1658343;85;21095;-58
2022/12/28 05:53:45;;;;;;;11.93;4.80;;;;;;;6.31;58.88;102691.59;1662409;85;21031;-58
2022/12/28 05:56:18;;;;;;;12.58;5.60;;;;;;;6.35;58.67;102684.37;1642088;85;21056;-58
2022/12/28 05:58:48;;;;;;;11.88;5.67;;;;;;;6.38;58.64;102684.47;1611139;88;21067;-58
2022/12/28 06:01:18;;;;;;;9.13;5.12;;;;;;;6.40;58.60;102672.86;1599603;88;21062;-57
2022/12/28 06:03:45;;;;;;;9.00;4.60;;;;;;;6.42;58.54;102672.06;1614910;88;21020;-57
2022/12/28 06:06:15;;;;;;;8.08;4.22;;;;;;;6.43;58.41;102675.09;1602818;88;21088;-58
2022/12/28 06:08:42;;;;;;;6.60;4.05;;;;;;;6.42;58.41;102678.53;1609713;88;21030;-58
2022/12/28 06:11:12;;;;;;;5.42;4.00;;;;;;;6.41;58.48;102681.05;1608096;88;21030;-57
2022/12/28 06:13:39;;;;;;;9.60;4.30;;;;;;;6.41;58.56;102690.98;1616899;86;21066;-58
2022/12/28 06:16:12;;;;;;;8.80;4.53;;;;;;;6.47;58.57;102695.02;1601641;88;21145;-58
2022/12/28 06:18:38;;;;;;;10.55;4.55;;;;;;;6.53;58.51;102707.26;1562798;89;21120;-58
2022/12/28 06:21:12;;;;;;;5.17;4.00;;;;;;;6.61;58.39;102715.20;1578562;87;21109;-58
2022/12/28 06:23:39;;;;;;;6.12;4.10;;;;;;;6.68;58.36;102719.70;1612061;88;21039;-57
2022/12/28 06:26:06;;;;;;;7.83;3.83;;;;;;;6.76;58.28;102719.48;1603527;88;21096;-58
2022/12/28 06:28:35;;;;;;;9.53;3.87;;;;;;;6.83;58.03;102721.36;1612167;87;20990;-57
2022/12/28 06:31:07;;;;;;;6.62;3.83;;;;;;;6.90;57.94;102723.28;1657169;84;21050;-57
2022/12/28 06:33:34;;;;;;;7.87;3.30;;;;;;;6.94;57.51;102721.22;1614432;88;21622;-58
2022/12/28 06:36:00;;;;;;;6.72;3.95;;;;;;;6.97;57.08;102722.56;1615719;88;21039;-57
2022/12/28 06:38:31;;;;;;;10.05;4.03;;;;;;;6.93;56.82;102719.45;1598913;88;21118;-58
2022/12/28 06:41:03;;;;;;;8.38;3.83;;;;;;;6.90;56.81;102721.98;1543430;91;21469;-57
2022/12/28 06:43:34;;;;;;;8.05;3.77;;;;;;;6.84;56.76;102727.86;1590350;89;21554;-57
2022/12/28 06:46:01;;;;;;;12.93;4.30;;;;;;;6.81;57.01;102733.39;1573626;91;21112;-58
2022/12/28 06:48:29;;;;;;;10.13;4.58;;;;;;;6.80;57.16;102738.13;1572704;91;21543;-57
2022/12/28 06:51:01;;;;;;;7.20;3.52;;;;;;;6.81;57.36;102745.03;1574759;91;21095;-57
2022/12/28 06:53:32;;;;;;;6.10;3.55;;;;;;;6.83;57.44;102754.59;1563943;90;21720;-57
2022/12/28 06:56:09;;;;;;;8.93;4.40;;;;;;;6.89;57.54;102756.45;1560219;91;21078;-57
2022/12/28 06:58:35;;;;;;;12.50;3.72;;;;;;;6.96;57.34;102762.24;1522742;93;21161;-57
2022/12/28 07:01:19;;;;;;;5.25;3.67;;;;;;;7.00;57.25;102767.95;1533048;92;21170;-57
2022/12/28 07:03:48;;;;;;;6.95;3.58;;;;;;;7.01;57.40;102772.27;1521875;92;21094;-57
2022/12/28 07:06:17;;;;;;;6.20;3.45;;;;;;;7.08;57.21;102772.89;1495017;93;21049;-57
2022/12/28 07:08:44;;;;;;;7.03;3.62;;;;;;;7.14;57.10;102778.22;1505637;94;21596;-57
2022/12/28 07:11:14;;;;;;;8.33;3.90;;;;;;;7.18;56.96;102778.75;1517965;92;21080;-57
2022/12/28 07:13:40;;;;;;;6.65;3.65;;;;;;;7.21;56.80;102787.90;1493615;94;21087;-57
2022/12/28 07:16:11;;;;;;;7.22;4.05;;;;;;;7.21;56.50;102786.61;1486332;95;21193;-57
2022/12/28 07:18:38;;;;;;;5.28;3.87;;;;;;;7.22;56.17;102789.22;1506258;93;21061;-57
2022/12/28 07:21:10;;;;;;;6.35;4.03;;;;;;;7.21;56.09;102795.67;1515061;93;21198;-57
2022/12/28 07:23:37;;;;;;;12.88;4.95;;;;;;;7.18;56.15;102789.11;1504559;93;21116;-57
2022/12/28 07:26:16;;;;;;;7.60;4.05;;;;;;;7.16;56.11;102795.96;1493171;94;21166;-57
2022/12/28 07:28:45;;;;;;;6.85;3.50;;;;;;;7.17;56.27;102799.02;1456110;97;21126;-58
2022/12/28 07:31:15;;;;;;;5.95;3.70;;;;;;;7.21;56.26;102804.73;1465978;95;21809;-57
2022/12/28 07:33:42;;;;;;;9.38;3.62;;;;;;;7.24;56.24;102804.79;1482072;96;21069;-57
2022/12/28 07:36:11;;;;;;;6.30;3.30;;;;;;;7.30;56.31;102804.94;1494402;93;21090;-57
2022/12/28 07:38:38;;;;;;;9.13;3.98;;;;;;;7.34;56.33;102804.17;1499587;94;21123;-57
2022/12/28 07:41:10;;;;;;;7.15;4.10;;;;;;;7.39;56.31;102799.98;1490974;94;21116;-58
2022/12/28 07:43:38;;;;;;;10.00;4.00;;;;;;;7.45;56.21;102800.13;1507923;94;21194;-57
2022/12/28 07:46:13;;;;;;;7.20;3.92;;;;;;;7.52;56.04;102798.15;1501433;94;21059;-58
2022/12/28 07:48:40;;;;;;;7.83;3.92;;;;;;;7.60;55.86;102809.56;1508640;93;21076;-57
2022/12/28 07:51:14;;;;;;;7.72;4.30;;;;;;;7.66;55.62;102810.11;1518584;93;21141;-57
2022/12/28 07:53:42;;;;;;;6.55;3.67;;;;;;;7.71;55.38;102814.55;1506732;94;21714;-57
2022/12/28 07:56:09;;;;;;;6.28;3.87;;;;;;;7.75;55.09;102818.95;1521512;92;21143;-57
2022/12/28 07:58:36;;;;;;;9.60;4.20;;;;;;;7.78;54.91;102825.52;1538911;91;21108;-58
2022/12/28 08:01:13;;;;;;;6.00;3.60;;;;;;;7.82;54.80;102822.16;1545352;91;21098;-58
2022/12/28 08:03:40;;;;;;;7.67;3.85;;;;;;;7.86;54.75;102826.56;1557860;90;21096;-57
2022/12/28 08:06:14;;;;;;;6.35;3.52;;;;;;;7.90;54.62;102819.30;1577184;90;21129;-57
2022/12/28 08:08:43;;;;;;;7.58;4.00;;;;;;;7.95;54.43;102813.81;1554326;91;21642;-57
2022/12/28 08:11:13;;;;;;;6.65;4.20;;;;;;;7.99;54.40;102819.93;1560130;91;21111;-56
2022/12/28 08:13:42;;;;;;;6.92;3.58;;;;;;;8.03;53.95;102823.92;1508713;93;21566;-56
2022/12/28 08:16:10;;;;;;;6.05;4.15;;;;;;;8.06;53.65;102825.27;1495296;94;21625;-57
2022/12/28 08:18:39;;;;;;;6.47;3.77;;;;;;;8.09;53.55;102813.68;1502703;93;21238;-57
2022/12/28 08:21:09;;;;;;;8.70;4.47;;;;;;;8.13;53.49;102812.02;1501281;92;21117;-57
2022/12/28 08:23:36;;;;;;;5.78;3.98;;;;;;;8.15;53.39;102816.40;1438641;97;21146;-57
2022/12/28 08:26:09;;;;;;;9.75;4.30;;;;;;;8.17;53.23;102816.01;1452985;97;21138;-57
2022/12/28 08:28:36;;;;;;;7.33;3.90;;;;;;;8.18;52.80;102811.26;1461773;96;21100;-57
2022/12/28 08:31:11;;;;;;;8.53;4.03;;;;;;;8.19;52.66;102814.32;1491489;95;21624;-56
2022/12/28 08:33:38;;;;;;;7.05;4.28;;;;;;;8.19;52.75;102807.84;1459659;94;21159;-57
2022/12/28 08:36:06;;;;;;;7.15;4.25;;;;;;;8.22;52.98;102813.07;1485797;95;21133;-57
2022/12/28 08:38:34;;;;;;;6.80;3.80;;;;;;;8.24;52.80;102826.94;1467639;96;21143;-57
2022/12/28 08:41:02;;;;;;;8.13;3.85;;;;;;;8.26;53.05;102826.15;1441175;97;21632;-56
2022/12/28 08:43:29;;;;;;;6.42;3.87;;;;;;;8.28;52.83;102823.16;1495784;94;21150;-57
2022/12/28 08:46:06;;;;;;;5.78;3.70;;;;;;;8.30;52.74;102825.36;1532537;91;21103;-57
2022/12/28 08:48:33;;;;;;;9.05;3.85;;;;;;;8.32;52.64;102823.67;1492168;95;21110;-58
2022/12/28 08:51:04;;;;;;;7.37;3.62;;;;;;;8.30;52.47;102817.58;1486286;94;21215;-58
2022/12/28 08:53:31;;;;;;;9.13;4.35;;;;;;;8.32;52.19;102817.19;1453567;97;21477;-58
2022/12/28 08:56:17;;;;;;;6.35;4.42;;;;;;;8.33;52.22;102822.81;1452077;97;21154;-58
2022/12/28 08:58:45;;;;;;;6.47;3.85;;;;;;;8.35;52.21;102818.53;1456759;97;21089;-58
2022/12/28 09:01:21;;;;;;;6.60;3.80;;;;;;;8.40;52.21;102816.92;1463338;96;21654;-58
2022/12/28 09:03:50;;;;;;;5.67;4.10;;;;;;;8.43;52.13;102810.52;1456974;97;21129;-58
2022/12/28 09:06:20;;;;;;;7.37;4.10;;;;;;;8.44;52.51;102814.84;1455174;96;21108;-58
2022/12/28 09:08:54;;;;;;;5.53;3.37;;;;;;;8.46;52.40;102817.04;1453895;97;21117;-58
2022/12/28 09:11:21;;;;;;;5.95;3.72;;;;;;;8.49;52.61;102811.92;1498849;93;21136;-58
2022/12/28 09:13:47;;;;;;;6.65;3.98;;;;;;;8.52;52.69;102810.25;1511479;93;21105;-59
2022/12/28 09:16:16;;;;;;;6.65;4.15;;;;;;;8.55;52.54;102814.64;1512635;93;21179;-58
2022/12/28 09:18:44;;;;;;;5.55;4.05;;;;;;;8.57;52.14;102807.75;1506889;93;21099;-58
2022/12/28 09:21:16;;;;;;;8.50;3.55;;;;;;;8.62;52.38;102815.19;1545532;90;21102;-58
2022/12/28 09:23:44;;;;;;;5.05;3.52;;;;;;;8.65;52.12;102803.58;1539259;91;21134;-58
2022/12/28 09:26:14;;;;;;;7.05;3.80;;;;;;;8.69;52.07;102810.58;1553940;91;21650;-58
2022/12/28 09:28:50;;;;;;;6.90;3.67;;;;;;;8.70;52.11;102807.11;1550131;91;21127;-58
2022/12/28 09:31:18;;;;;;;7.65;3.85;;;;;;;8.73;51.94;102804.59;1539652;91;21761;-58
2022/12/28 09:34:03;;;;;;;8.75;4.33;;;;;;;8.76;51.98;102817.61;1546620;90;21196;-58
2022/12/28 09:36:39;;;;;;;6.70;3.90;;;;;;;8.77;51.96;102809.87;1542748;90;21105;-58
2022/12/28 09:39:11;;;;;;;10.28;4.75;;;;;;;8.82;51.86;102817.75;1527736;92;21130;-58
2022/12/28 09:41:54;;;;;;;8.60;3.70;;;;;;;8.85;52.14;102810.88;1501034;94;21070;-58
2022/12/28 09:44:59;;;;;;;6.87;4.08;;;;;;;8.87;51.61;102813.50;1512732;94;21174;-58
2022/12/28 09:47:48;;;;;;;6.60;4.17;;;;;;;8.88;51.77;102807.47;1513526;93;21102;-58
2022/12/28 09:50:24;;;;;;;8.35;4.28;;;;;;;8.91;51.31;102812.70;1511597;93;21062;-58
2022/12/28 09:53:18;;;;;;;5.42;3.70;;;;;;;8.95;51.72;102806.72;1522467;93;21072;-58
2022/12/28 09:56:00;;;;;;;5.67;3.37;;;;;;;8.98;51.19;102807.62;1485398;95;21082;-58
2022/12/28 09:58:28;;;;;;;7.33;3.67;;;;;;;9.01;51.03;102809.41;1491198;95;21108;-58
2022/12/28 10:00:57;;;;;;;6.45;3.67;;;;;;;9.04;50.58;102809.48;1537068;91;21157;-58
2022/12/28 10:03:28;;;;;;;6.40;4.20;;;;;;;9.04;50.89;102808.19;1548161;91;21595;-58
2022/12/28 10:05:55;;;;;;;6.03;3.80;;;;;;;9.05;51.23;102810.36;1511412;94;21668;-59
2022/12/28 10:08:24;;;;;;;7.67;3.72;;;;;;;9.05;51.23;102811.22;1498744;93;21605;-58
2022/12/28 10:10:51;;;;;;;6.10;3.98;;;;;;;9.07;51.25;102811.27;1513086;93;21130;-58
2022/12/28 10:13:24;;;;;;;5.78;3.75;;;;;;;9.08;51.32;102809.98;1506424;94;21134;-58
2022/12/28 10:15:50;;;;;;;6.85;3.90;;;;;;;9.08;51.47;102808.69;1499920;94;21088;-58
2022/12/28 10:18:26;;;;;;;7.17;3.95;;;;;;;9.09;51.33;102810.41;1512622;94;21128;-58
2022/12/28 10:20:53;;;;;;;6.17;3.58;;;;;;;9.10;51.56;102804.39;1498509;94;21229;-58
2022/12/28 10:23:25;;;;;;;6.40;3.58;;;;;;;9.13;51.85;102807.02;1502047;94;21104;-58
2022/12/28 10:25:53;;;;;;;5.42;3.52;;;;;;;9.19;51.67;102809.72;1491404;94;21073;-58
2022/12/28 10:28:21;;;;;;;7.67;4.42;;;;;;;9.25;51.50;102801.17;1486207;95;21115;-58
2022/12/28 10:31:07;;;;;;;5.67;3.60;;;;;;;9.29;51.19;102801.25;1499540;93;21160;-59
2022/12/28 10:33:40;;;;;;;5.42;3.62;;;;;;;9.31;51.29;102819.03;1581629;89;21109;-58
2022/12/28 10:36:12;;;;;;;7.53;3.70;;;;;;;9.34;50.77;102815.17;1574655;89;21070;-57
2022/12/28 10:38:42;;;;;;;6.37;3.45;;;;;;;9.35;51.28;102811.73;1571974;90;21049;-57
2022/12/28 10:41:14;;;;;;;7.10;3.98;;;;;;;9.38;51.07;102822.16;1543866;90;21078;-58
2022/12/28 10:43:44;;;;;;;6.67;3.70;;;;;;;9.40;51.15;102817.86;1557604;90;21042;-57
2022/12/28 10:46:20;;;;;;;6.45;3.55;;;;;;;9.43;50.99;102814.45;1658715;85;21034;-58
2022/12/28 10:48:53;;;;;;;6.47;3.42;;;;;;;9.45;50.11;102814.05;1642083;85;21599;-57
2022/12/28 10:51:24;;;;;;;7.20;4.03;;;;;;;9.45;50.11;102814.92;1631174;87;21074;-57
2022/12/28 10:53:56;;;;;;;7.50;4.28;;;;;;;9.47;50.28;102814.52;1625628;87;21078;-57
2022/12/28 10:56:31;;;;;;;6.92;3.22;;;;;;;9.46;50.54;102810.16;1616615;87;21122;-57
2022/12/28 10:59:13;;;;;;;7.10;4.00;;;;;;;9.50;50.78;102812.41;1607770;88;21127;-57
2022/12/28 11:01:41;;;;;;;4.97;3.20;;;;;;;9.52;50.16;102807.66;1545235;90;21071;-58
2022/12/28 11:04:21;;;;;;;5.80;3.12;;;;;;;9.48;49.30;102803.27;1575211;90;21064;-57
2022/12/28 11:06:55;;;;;;;6.78;3.40;;;;;;;9.52;49.24;102804.20;1546437;91;21577;-58
2022/12/28 11:09:28;;;;;;;6.90;3.52;;;;;;;9.56;49.71;102806.84;1594328;87;21581;-58
2022/12/28 11:12:16;;;;;;;6.12;3.50;;;;;;;9.58;49.16;102802.55;1596505;87;21146;-58
2022/12/28 11:14:43;;;;;;;4.42;3.02;;;;;;;9.60;49.08;102806.04;1598703;87;21115;-59
2022/12/28 11:17:22;;;;;;;5.83;3.65;;;;;;;9.63;49.41;102811.30;1579408;89;21025;-58
2022/12/28 11:19:53;;;;;;;5.53;3.67;;;;;;;9.68;48.98;102811.38;1588309;88;21691;-58
2022/12/28 11:22:23;;;;;;;4.65;3.50;;;;;;;9.70;49.01;102813.15;1548103;90;21169;-58
2022/12/28 11:24:49;;;;;;;5.30;3.17;;;;;;;9.72;48.88;102811.86;1545762;92;21036;-58
2022/12/28 11:27:18;;;;;;;6.08;3.35;;;;;;;9.75;48.50;102819.27;1526555;92;21166;-58
2022/12/28 11:29:48;;;;;;;6.83;3.60;;;;;;;9.80;48.71;102811.55;1523112;92;21105;-58
2022/12/28 11:32:26;;;;;;;5.78;3.90;;;;;;;9.82;48.30;102810.72;1532595;92;21129;-58
2022/12/28 11:34:54;;;;;;;5.00;3.60;;;;;;;9.84;47.99;102812.03;1529321;92;21146;-57
2022/12/28 11:37:20;;;;;;;6.28;3.20;;;;;;;9.83;47.69;102808.55;1520701;92;21092;-58
2022/12/28 11:39:50;;;;;;;4.45;3.70;;;;;;;9.80;47.87;102809.83;1524785;91;21206;-58
2022/12/28 11:42:39;;;;;;;6.50;3.75;;;;;;;9.84;48.08;102812.03;1516127;93;21074;-58
2022/12/28 11:45:15;;;;;;;4.62;3.02;;;;;;;9.90;47.87;102812.53;1495813;94;21143;-58
2022/12/28 11:47:42;;;;;;;5.70;3.50;;;;;;;9.96;47.75;102811.31;1501365;92;21195;-58
2022/12/28 11:50:35;;;;;;;6.53;3.37;;;;;;;9.99;47.34;102806.17;1542585;91;21448;-57
2022/12/28 11:53:03;;;;;;;4.12;3.08;;;;;;;9.99;47.58;102807.47;1476760;95;21102;-58
2022/12/28 11:55:38;;;;;;;4.92;3.52;;;;;;;10.03;47.57;102804.05;1476918;95;21109;-59
2022/12/28 11:58:29;;;;;;;5.00;2.92;;;;;;;10.06;47.59;102806.67;1479179;95;21618;-58
2022/12/28 12:00:58;;;;;;;5.15;3.33;;;;;;;10.09;47.44;102812.81;1452374;96;21118;-58
2022/12/28 12:03:59;;;;;;;5.03;3.33;;;;;;;10.13;47.51;102805.95;1466321;96;21105;-58
2022/12/28 12:06:47;;;;;;;4.75;3.12;;;;;;;10.17;47.29;102815.53;1451795;96;21610;-58
2022/12/28 12:09:31;;;;;;;4.50;3.00;;;;;;;10.20;47.14;102813.84;1467157;96;21141;-58
2022/12/28 12:11:59;;;;;;;4.35;2.92;;;;;;;10.22;46.80;102813.88;1458679;96;22138;-58
2022/12/28 12:14:42;;;;;;;6.67;3.52;;;;;;;10.24;46.81;102806.97;1444972;97;21143;-58
2022/12/28 12:17:27;;;;;;;5.17;3.33;;;;;;;10.26;46.46;102805.25;1436314;98;21110;-58
2022/12/28 12:19:58;;;;;;;4.33;3.45;;;;;;;10.27;46.14;102811.77;1451753;95;21283;-58
2022/12/28 12:22:37;;;;;;;6.10;3.72;;;;;;;10.31;46.13;102813.97;1500081;94;21091;-58
2022/12/28 12:25:30;;;;;;;4.92;3.30;;;;;;;10.33;46.42;102820.06;1440416;98;21117;-58